sensor_id;sensor_type;location;lat;lon;timestamp;P1;durP1;ratioP1;P2;durP2;ratioP2
62010;SDS011;47967;51.756;10.174;2023-03-30T04:00:46;6.28;;;3.13;;
62010;SDS011;47967;51.756;10.174;2023-03-30T04:04:49;7.50;;;3.40;;
62010;SDS011;47967;51.756;10.174;2023-03-30T04:08:52;5.72;;;3.10;;
62010;SDS011;47967;51.756;10.174;2023-03-30T04:13:24;5.60;;;2.88;;
62010;SDS011;47967;51.756;10.174;2023-03-30T04:17:46;3.88;;;2.40;;
62010;SDS011;47967;51.756;10.174;2023-03-30T04:21:58;7.10;;;2.90;;
62010;SDS011;47967;51.756;10.174;2023-03-30T04:26:16;5.85;;;3.22;;
62010;SDS011;47967;51.756;10.174;2023-03-30T04:30:48;11.77;;;3.40;;
62010;SDS011;47967;51.756;10.174;2023-03-30T04:35:22;4.25;;;2.70;;
62010;SDS011;47967;51.756;10.174;2023-03-30T04:39:48;6.75;;;3.00;;
62010;SDS011;47967;51.756;10.174;2023-03-30T04:44:17;5.43;;;2.85;;
62010;SDS011;47967;51.756;10.174;2023-03-30T04:48:47;6.68;;;3.17;;
62010;SDS011;47967;51.756;10.174;2023-03-30T04:53:11;6.55;;;2.83;;
62010;SDS011;47967;51.756;10.174;2023-03-30T04:57:37;10.02;;;2.90;;
62010;SDS011;47967;51.756;10.174;2023-03-30T05:02:00;7.95;;;3.20;;
62010;SDS011;47967;51.756;10.174;2023-03-30T05:06:04;8.07;;;3.58;;
62010;SDS011;47967;51.756;10.174;2023-03-30T05:10:26;7.72;;;3.22;;
62010;SDS011;47967;51.756;10.174;2023-03-30T05:14:47;9.48;;;4.30;;
62010;SDS011;47967;51.756;10.174;2023-03-30T05:19:01;10.77;;;4.10;;
62010;SDS011;47967;51.756;10.174;2023-03-30T05:23:20;5.40;;;3.22;;
62010;SDS011;47967;51.756;10.174;2023-03-30T05:27:28;9.75;;;4.63;;
62010;SDS011;47967;51.756;10.174;2023-03-30T05:31:41;6.38;;;3.42;;
62010;SDS011;47967;51.756;10.174;2023-03-30T05:35:57;9.32;;;3.65;;
62010;SDS011;47967;51.756;10.174;2023-03-30T05:40:15;5.70;;;2.92;;
62010;SDS011;47967;51.756;10.174;2023-03-30T05:44:38;7.50;;;2.80;;
62010;SDS011;47967;51.756;10.174;2023-03-30T05:48:59;6.75;;;3.00;;
62010;SDS011;47967;51.756;10.174;2023-03-30T05:57:19;6.95;;;3.25;;
62010;SDS011;47967;51.756;10.174;2023-03-30T06:01:32;9.20;;;4.70;;
62010;SDS011;47967;51.756;10.174;2023-03-30T06:05:35;9.40;;;4.40;;
62010;SDS011;47967;51.756;10.174;2023-03-30T06:09:40;11.25;;;3.83;;
62010;SDS011;47967;51.756;10.174;2023-03-30T06:13:52;11.70;;;4.23;;
62010;SDS011;47967;51.756;10.174;2023-03-30T06:17:57;6.35;;;3.10;;
62010;SDS011;47967;51.756;10.174;2023-03-30T06:22:06;10.88;;;3.35;;
62010;SDS011;47967;51.756;10.174;2023-03-30T06:26:30;6.47;;;2.70;;
62010;SDS011;47967;51.756;10.174;2023-03-30T06:30:33;7.23;;;2.97;;
62010;SDS011;47967;51.756;10.174;2023-03-30T06:34:41;6.10;;;3.38;;
62010;SDS011;47967;51.756;10.174;2023-03-30T06:38:45;6.90;;;3.70;;
62010;SDS011;47967;51.756;10.174;2023-03-30T06:42:50;8.63;;;3.95;;
62010;SDS011;47967;51.756;10.174;2023-03-30T06:47:22;5.43;;;3.28;;
62010;SDS011;47967;51.756;10.174;2023-03-30T06:51:26;6.63;;;3.50;;
62010;SDS011;47967;51.756;10.174;2023-03-30T06:55:31;4.95;;;3.05;;
62010;SDS011;47967;51.756;10.174;2023-03-30T06:59:34;7.57;;;2.88;;
62010;SDS011;47967;51.756;10.174;2023-03-30T07:03:56;7.60;;;2.95;;
62010;SDS011;47967;51.756;10.174;2023-03-30T07:08:13;4.68;;;3.00;;
62010;SDS011;47967;51.756;10.174;2023-03-30T07:12:22;7.90;;;3.83;;
62010;SDS011;47967;51.756;10.174;2023-03-30T07:16:25;6.95;;;4.07;;
62010;SDS011;47967;51.756;10.174;2023-03-30T07:20:28;8.10;;;4.03;;
62010;SDS011;47967;51.756;10.174;2023-03-30T07:28:57;9.27;;;3.90;;
62010;SDS011;47967;51.756;10.174;2023-03-30T07:33:00;11.30;;;4.38;;
62010;SDS011;47967;51.756;10.174;2023-03-30T07:41:10;8.35;;;2.63;;
62010;SDS011;47967;51.756;10.174;2023-03-30T07:45:15;7.70;;;2.20;;
62010;SDS011;47967;51.756;10.174;2023-03-30T07:49:19;4.80;;;2.00;;
62010;SDS011;47967;51.756;10.174;2023-03-30T07:53:22;6.45;;;2.28;;
62010;SDS011;47967;51.756;10.174;2023-03-30T08:01:31;9.27;;;2.40;;
62010;SDS011;47967;51.756;10.174;2023-03-30T08:05:52;9.98;;;2.33;;
62010;SDS011;47967;51.756;10.174;2023-03-30T08:09:56;8.38;;;2.55;;
62010;SDS011;47967;51.756;10.174;2023-03-30T08:14:00;6.10;;;2.60;;
62010;SDS011;47967;51.756;10.174;2023-03-30T08:18:03;5.13;;;2.50;;
62010;SDS011;47967;51.756;10.174;2023-03-30T08:22:08;7.72;;;2.38;;
62010;SDS011;47967;51.756;10.174;2023-03-30T08:26:11;7.57;;;2.43;;
62010;SDS011;47967;51.756;10.174;2023-03-30T08:30:15;9.23;;;2.47;;
62010;SDS011;47967;51.756;10.174;2023-03-30T08:34:18;7.35;;;2.30;;
62010;SDS011;47967;51.756;10.174;2023-03-30T08:38:20;11.20;;;2.23;;
62010;SDS011;47967;51.756;10.174;2023-03-30T08:47:04;7.25;;;2.60;;
62010;SDS011;47967;51.756;10.174;2023-03-30T08:51:14;9.48;;;2.28;;
62010;SDS011;47967;51.756;10.174;2023-03-30T08:55:24;7.07;;;2.45;;
62010;SDS011;47967;51.756;10.174;2023-03-30T08:59:34;8.88;;;2.53;;
62010;SDS011;47967;51.756;10.174;2023-03-30T09:03:47;6.97;;;2.35;;
62010;SDS011;47967;51.756;10.174;2023-03-30T09:08:13;12.88;;;2.80;;
62010;SDS011;47967;51.756;10.174;2023-03-30T09:12:21;5.80;;;2.13;;
62010;SDS011;47967;51.756;10.174;2023-03-30T09:16:32;9.88;;;2.70;;
62010;SDS011;47967;51.756;10.174;2023-03-30T09:20:43;7.55;;;2.33;;
62010;SDS011;47967;51.756;10.174;2023-03-30T09:24:47;6.90;;;2.05;;
62010;SDS011;47967;51.756;10.174;2023-03-30T09:28:53;9.52;;;3.17;;
62010;SDS011;47967;51.756;10.174;2023-03-30T09:33:03;7.47;;;3.13;;
62010;SDS011;47967;51.756;10.174;2023-03-30T09:37:13;11.20;;;2.50;;
62010;SDS011;47967;51.756;10.174;2023-03-30T09:41:21;8.35;;;2.38;;
62010;SDS011;47967;51.756;10.174;2023-03-30T09:45:32;6.45;;;2.28;;
62010;SDS011;47967;51.756;10.174;2023-03-30T09:49:36;7.78;;;2.20;;
62010;SDS011;47967;51.756;10.174;2023-03-30T09:53:41;6.15;;;2.35;;
62010;SDS011;47967;51.756;10.174;2023-03-30T09:57:46;7.70;;;2.28;;
62010;SDS011;47967;51.756;10.174;2023-03-30T10:01:48;8.17;;;2.40;;
62010;SDS011;47967;51.756;10.174;2023-03-30T10:05:59;9.88;;;2.50;;
62010;SDS011;47967;51.756;10.174;2023-03-30T10:10:15;10.07;;;2.80;;
62010;SDS011;47967;51.756;10.174;2023-03-30T10:14:31;7.00;;;2.40;;
62010;SDS011;47967;51.756;10.174;2023-03-30T10:18:37;8.73;;;2.50;;
62010;SDS011;47967;51.756;10.174;2023-03-30T10:22:47;6.72;;;2.10;;
62010;SDS011;47967;51.756;10.174;2023-03-30T10:26:54;7.85;;;2.20;;
62010;SDS011;47967;51.756;10.174;2023-03-30T10:30:58;7.07;;;2.70;;
62010;SDS011;47967;51.756;10.174;2023-03-30T10:35:06;7.78;;;2.72;;
62010;SDS011;47967;51.756;10.174;2023-03-30T10:39:11;5.35;;;2.40;;
62010;SDS011;47967;51.756;10.174;2023-03-30T10:43:21;5.57;;;2.70;;
62010;SDS011;47967;51.756;10.174;2023-03-30T10:47:39;7.72;;;2.25;;
62010;SDS011;47967;51.756;10.174;2023-03-30T10:51:53;6.95;;;2.33;;
62010;SDS011;47967;51.756;10.174;2023-03-30T10:56:06;6.65;;;2.25;;
62010;SDS011;47967;51.756;10.174;2023-03-30T11:00:21;9.85;;;2.40;;
62010;SDS011;47967;51.756;10.174;2023-03-30T11:04:33;11.63;;;2.70;;
62010;SDS011;47967;51.756;10.174;2023-03-30T11:08:40;7.45;;;2.17;;
62010;SDS011;47967;51.756;10.174;2023-03-30T11:12:47;8.82;;;2.70;;
62010;SDS011;47967;51.756;10.174;2023-03-30T11:16:55;10.70;;;2.53;;
62010;SDS011;47967;51.756;10.174;2023-03-30T11:21:03;8.60;;;2.20;;
62010;SDS011;47967;51.756;10.174;2023-03-30T11:25:14;8.25;;;2.15;;
62010;SDS011;47967;51.756;10.174;2023-03-30T11:29:23;8.75;;;2.30;;
62010;SDS011;47967;51.756;10.174;2023-03-30T11:33:33;2.63;;;1.30;;
62010;SDS011;47967;51.756;10.174;2023-03-30T11:37:41;5.78;;;1.52;;
62010;SDS011;47967;51.756;10.174;2023-03-30T11:41:49;3.65;;;1.30;;
62010;SDS011;47967;51.756;10.174;2023-03-30T11:45:59;4.60;;;1.48;;
62010;SDS011;47967;51.756;10.174;2023-03-30T11:50:08;2.78;;;1.50;;
62010;SDS011;47967;51.756;10.174;2023-03-30T11:54:23;6.00;;;1.77;;
62010;SDS011;47967;51.756;10.174;2023-03-30T11:59:02;3.35;;;1.52;;
62010;SDS011;47967;51.756;10.174;2023-03-30T12:03:15;5.25;;;1.48;;
62010;SDS011;47967;51.756;10.174;2023-03-30T12:07:46;2.78;;;1.55;;
62010;SDS011;47967;51.756;10.174;2023-03-30T12:12:04;2.72;;;1.90;;
62010;SDS011;47967;51.756;10.174;2023-03-30T12:16:12;3.95;;;1.63;;
62010;SDS011;47967;51.756;10.174;2023-03-30T12:20:31;3.38;;;1.95;;
62010;SDS011;47967;51.756;10.174;2023-03-30T12:24:44;5.10;;;2.00;;
62010;SDS011;47967;51.756;10.174;2023-03-30T12:28:56;7.45;;;2.50;;
62010;SDS011;47967;51.756;10.174;2023-03-30T12:33:09;3.08;;;1.75;;
62010;SDS011;47967;51.756;10.174;2023-03-30T12:37:14;6.40;;;1.70;;
62010;SDS011;47967;51.756;10.174;2023-03-30T12:41:20;6.65;;;1.77;;
62010;SDS011;47967;51.756;10.174;2023-03-30T12:45:24;7.80;;;1.98;;
62010;SDS011;47967;51.756;10.174;2023-03-30T12:49:36;5.25;;;1.77;;
62010;SDS011;47967;51.756;10.174;2023-03-30T12:54:01;4.50;;;1.70;;
62010;SDS011;47967;51.756;10.174;2023-03-30T12:58:40;3.42;;;1.73;;
62010;SDS011;47967;51.756;10.174;2023-03-30T13:02:58;4.25;;;1.58;;
62010;SDS011;47967;51.756;10.174;2023-03-30T13:07:12;6.83;;;1.63;;
62010;SDS011;47967;51.756;10.174;2023-03-30T13:11:18;7.78;;;1.77;;
62010;SDS011;47967;51.756;10.174;2023-03-30T13:15:31;6.47;;;1.65;;
62010;SDS011;47967;51.756;10.174;2023-03-30T13:19:39;3.70;;;1.60;;
62010;SDS011;47967;51.756;10.174;2023-03-30T13:23:48;4.75;;;1.63;;
62010;SDS011;47967;51.756;10.174;2023-03-30T13:32:55;4.47;;;1.60;;
62010;SDS011;47967;51.756;10.174;2023-03-30T13:37:13;4.40;;;1.70;;
62010;SDS011;47967;51.756;10.174;2023-03-30T13:41:27;6.07;;;1.70;;
62010;SDS011;47967;51.756;10.174;2023-03-30T13:45:41;3.40;;;1.63;;
62010;SDS011;47967;51.756;10.174;2023-03-30T13:49:52;4.65;;;1.67;;
62010;SDS011;47967;51.756;10.174;2023-03-30T13:54:00;7.10;;;1.30;;
62010;SDS011;47967;51.756;10.174;2023-03-30T13:58:07;6.50;;;1.70;;
62010;SDS011;47967;51.756;10.174;2023-03-30T14:02:15;3.38;;;1.63;;
62010;SDS011;47967;51.756;10.174;2023-03-30T14:06:22;4.50;;;1.50;;
62010;SDS011;47967;51.756;10.174;2023-03-30T14:10:26;3.75;;;1.48;;
62010;SDS011;47967;51.756;10.174;2023-03-30T14:14:32;4.32;;;1.55;;
62010;SDS011;47967;51.756;10.174;2023-03-30T14:18:36;6.28;;;1.42;;
62010;SDS011;47967;51.756;10.174;2023-03-30T14:22:40;7.33;;;1.70;;
62010;SDS011;47967;51.756;10.174;2023-03-30T14:26:47;5.45;;;1.83;;
62010;SDS011;47967;51.756;10.174;2023-03-30T14:30:51;6.13;;;1.40;;
62010;SDS011;47967;51.756;10.174;2023-03-30T14:34:55;6.13;;;1.42;;
62010;SDS011;47967;51.756;10.174;2023-03-30T14:38:58;7.40;;;2.33;;
62010;SDS011;47967;51.756;10.174;2023-03-30T14:43:02;5.47;;;2.15;;
62010;SDS011;47967;51.756;10.174;2023-03-30T14:47:05;7.13;;;2.30;;
62010;SDS011;47967;51.756;10.174;2023-03-30T14:51:18;5.50;;;1.88;;
62010;SDS011;47967;51.756;10.174;2023-03-30T14:55:25;5.90;;;2.13;;
62010;SDS011;47967;51.756;10.174;2023-03-30T14:59:29;6.88;;;2.30;;
62010;SDS011;47967;51.756;10.174;2023-03-30T15:03:35;7.93;;;2.08;;
62010;SDS011;47967;51.756;10.174;2023-03-30T15:07:39;6.30;;;2.10;;
62010;SDS011;47967;51.756;10.174;2023-03-30T15:11:43;5.53;;;1.93;;
62010;SDS011;47967;51.756;10.174;2023-03-30T15:15:48;5.80;;;1.90;;
62010;SDS011;47967;51.756;10.174;2023-03-30T15:19:53;5.60;;;1.50;;
62010;SDS011;47967;51.756;10.174;2023-03-30T15:23:59;5.43;;;1.20;;
62010;SDS011;47967;51.756;10.174;2023-03-30T15:28:04;5.70;;;1.50;;
62010;SDS011;47967;51.756;10.174;2023-03-30T15:32:13;3.00;;;1.10;;
62010;SDS011;47967;51.756;10.174;2023-03-30T15:36:18;5.63;;;1.40;;
62010;SDS011;47967;51.756;10.174;2023-03-30T15:40:30;3.83;;;1.45;;
62010;SDS011;47967;51.756;10.174;2023-03-30T15:44:37;4.22;;;1.25;;
62010;SDS011;47967;51.756;10.174;2023-03-30T15:48:42;6.18;;;1.40;;
62010;SDS011;47967;51.756;10.174;2023-03-30T15:52:47;5.80;;;1.55;;
62010;SDS011;47967;51.756;10.174;2023-03-30T15:57:02;5.63;;;1.70;;
62010;SDS011;47967;51.756;10.174;2023-03-30T16:01:11;5.85;;;1.60;;
62010;SDS011;47967;51.756;10.174;2023-03-30T16:05:15;3.33;;;1.60;;
62010;SDS011;47967;51.756;10.174;2023-03-30T16:09:20;5.03;;;1.52;;
62010;SDS011;47967;51.756;10.174;2023-03-30T16:13:23;4.15;;;1.67;;
62010;SDS011;47967;51.756;10.174;2023-03-30T16:17:27;5.33;;;1.47;;
62010;SDS011;47967;51.756;10.174;2023-03-30T16:21:30;2.67;;;1.20;;
62010;SDS011;47967;51.756;10.174;2023-03-30T16:25:32;5.78;;;1.60;;
62010;SDS011;47967;51.756;10.174;2023-03-30T16:29:45;8.37;;;1.70;;
62010;SDS011;47967;51.756;10.174;2023-03-30T16:33:49;4.20;;;1.33;;
62010;SDS011;47967;51.756;10.174;2023-03-30T16:37:52;4.60;;;1.42;;
62010;SDS011;47967;51.756;10.174;2023-03-30T16:41:55;5.13;;;1.10;;
62010;SDS011;47967;51.756;10.174;2023-03-30T16:45:57;5.90;;;1.70;;
62010;SDS011;47967;51.756;10.174;2023-03-30T16:50:04;5.90;;;2.30;;
62010;SDS011;47967;51.756;10.174;2023-03-30T16:54:16;5.88;;;2.90;;
62010;SDS011;47967;51.756;10.174;2023-03-30T16:58:32;6.43;;;2.78;;
62010;SDS011;47967;51.756;10.174;2023-03-30T17:02:34;7.53;;;2.13;;
62010;SDS011;47967;51.756;10.174;2023-03-30T17:06:38;8.33;;;2.90;;
62010;SDS011;47967;51.756;10.174;2023-03-30T17:10:41;6.80;;;2.50;;
62010;SDS011;47967;51.756;10.174;2023-03-30T17:14:43;10.80;;;2.43;;
62010;SDS011;47967;51.756;10.174;2023-03-30T17:18:46;4.80;;;1.80;;
62010;SDS011;47967;51.756;10.174;2023-03-30T17:22:50;3.83;;;1.33;;
62010;SDS011;47967;51.756;10.174;2023-03-30T17:26:53;6.78;;;2.78;;
62010;SDS011;47967;51.756;10.174;2023-03-30T17:34:59;5.50;;;2.38;;
62010;SDS011;47967;51.756;10.174;2023-03-30T17:39:03;6.23;;;1.93;;
62010;SDS011;47967;51.756;10.174;2023-03-30T17:43:07;9.15;;;2.90;;
62010;SDS011;47967;51.756;10.174;2023-03-30T17:47:11;6.85;;;1.67;;
62010;SDS011;47967;51.756;10.174;2023-03-30T17:51:13;5.73;;;2.10;;
62010;SDS011;47967;51.756;10.174;2023-03-30T17:55:17;7.00;;;2.10;;
62010;SDS011;47967;51.756;10.174;2023-03-30T17:59:20;4.15;;;1.30;;
62010;SDS011;47967;51.756;10.174;2023-03-30T18:03:23;6.47;;;1.60;;
62010;SDS011;47967;51.756;10.174;2023-03-30T18:07:26;5.47;;;2.20;;
62010;SDS011;47967;51.756;10.174;2023-03-30T18:11:30;7.67;;;2.30;;
62010;SDS011;47967;51.756;10.174;2023-03-30T18:15:33;3.83;;;1.35;;
62010;SDS011;47967;51.756;10.174;2023-03-30T18:19:36;6.28;;;1.83;;
62010;SDS011;47967;51.756;10.174;2023-03-30T18:23:38;7.57;;;1.70;;
62010;SDS011;47967;51.756;10.174;2023-03-30T18:27:43;5.43;;;2.00;;
62010;SDS011;47967;51.756;10.174;2023-03-30T18:31:46;5.78;;;1.60;;
62010;SDS011;47967;51.756;10.174;2023-03-30T18:35:50;2.67;;;1.40;;
62010;SDS011;47967;51.756;10.174;2023-03-30T18:39:53;8.02;;;1.70;;
62010;SDS011;47967;51.756;10.174;2023-03-30T18:43:57;10.07;;;1.70;;
62010;SDS011;47967;51.756;10.174;2023-03-30T18:48:00;6.78;;;1.55;;
62010;SDS011;47967;51.756;10.174;2023-03-30T18:52:03;7.78;;;1.90;;
62010;SDS011;47967;51.756;10.174;2023-03-30T18:56:08;7.43;;;1.47;;
62010;SDS011;47967;51.756;10.174;2023-03-30T19:00:16;7.07;;;1.73;;
62010;SDS011;47967;51.756;10.174;2023-03-30T19:04:24;5.43;;;1.25;;
62010;SDS011;47967;51.756;10.174;2023-03-30T19:08:26;5.33;;;1.80;;
62010;SDS011;47967;51.756;10.174;2023-03-30T19:12:29;7.50;;;1.50;;
62010;SDS011;47967;51.756;10.174;2023-03-30T19:16:34;5.38;;;1.58;;
62010;SDS011;47967;51.756;10.174;2023-03-30T19:20:37;7.00;;;1.70;;
62010;SDS011;47967;51.756;10.174;2023-03-30T19:24:41;8.73;;;2.35;;
62010;SDS011;47967;51.756;10.174;2023-03-30T19:28:44;3.70;;;2.30;;
62010;SDS011;47967;51.756;10.174;2023-03-30T19:32:48;10.23;;;2.70;;
62010;SDS011;47967;51.756;10.174;2023-03-30T19:36:52;9.98;;;3.17;;
62010;SDS011;47967;51.756;10.174;2023-03-30T19:40:57;6.13;;;2.20;;
62010;SDS011;47967;51.756;10.174;2023-03-30T19:45:02;10.40;;;2.15;;
62010;SDS011;47967;51.756;10.174;2023-03-30T19:49:07;8.40;;;2.00;;
62010;SDS011;47967;51.756;10.174;2023-03-30T19:53:10;6.90;;;2.50;;
62010;SDS011;47967;51.756;10.174;2023-03-30T19:57:12;6.17;;;2.27;;
62010;SDS011;47967;51.756;10.174;2023-03-30T20:01:15;9.93;;;2.25;;
62010;SDS011;47967;51.756;10.174;2023-03-30T20:05:21;5.32;;;2.25;;
62010;SDS011;47967;51.756;10.174;2023-03-30T20:09:25;7.18;;;2.35;;
62010;SDS011;47967;51.756;10.174;2023-03-30T20:13:28;4.90;;;2.30;;
62010;SDS011;47967;51.756;10.174;2023-03-30T20:17:31;7.33;;;2.87;;
62010;SDS011;47967;51.756;10.174;2023-03-30T20:21:37;7.13;;;2.28;;
62010;SDS011;47967;51.756;10.174;2023-03-30T20:25:43;7.75;;;2.45;;
62010;SDS011;47967;51.756;10.174;2023-03-30T20:29:46;5.78;;;2.20;;
62010;SDS011;47967;51.756;10.174;2023-03-30T20:33:49;5.97;;;2.40;;
62010;SDS011;47967;51.756;10.174;2023-03-30T20:37:52;6.20;;;2.20;;
62010;SDS011;47967;51.756;10.174;2023-03-30T20:41:55;5.90;;;2.35;;
62010;SDS011;47967;51.756;10.174;2023-03-30T20:50:03;5.15;;;1.80;;
62010;SDS011;47967;51.756;10.174;2023-03-30T20:54:09;4.40;;;1.63;;
62010;SDS011;47967;51.756;10.174;2023-03-30T20:58:11;5.25;;;1.98;;
